createdAt,value
2024-02-02T00:00:26.679Z,98823.50
2024-02-02T00:02:55.760Z,98822.59
2024-02-02T00:05:23.498Z,98840.44
2024-02-02T00:07:52.009Z,98831.00
2024-02-02T00:10:19.846Z,98837.22
2024-02-02T00:12:48.500Z,98829.38
2024-02-02T00:15:16.300Z,98815.94
2024-02-02T00:17:44.057Z,98808.56
2024-02-02T00:20:15.281Z,98818.53
2024-02-02T00:22:43.061Z,98802.31
2024-02-02T00:25:10.831Z,98806.31
2024-02-02T00:27:38.584Z,98800.19
2024-02-02T00:30:07.355Z,98783.72
2024-02-02T00:32:35.118Z,98782.94
2024-02-02T00:35:02.962Z,98770.28
2024-02-02T00:37:32.102Z,98764.50
2024-02-02T00:40:00.290Z,98773.78
2024-02-02T00:42:28.098Z,98791.50
2024-02-02T00:44:55.986Z,98793.81
2024-02-02T00:47:23.702Z,98781.22
2024-02-02T00:49:51.408Z,98797.47
2024-02-02T00:52:19.253Z,98784.41
2024-02-02T00:54:48.295Z,98786.09
2024-02-02T00:57:16.088Z,98797.63
2024-02-02T00:59:43.843Z,98809.81
2024-02-02T01:02:11.810Z,98794.44
2024-02-02T01:04:39.847Z,98798.19
2024-02-02T01:07:07.839Z,98798.16
2024-02-02T01:09:35.698Z,98793.03
2024-02-02T01:12:05.466Z,98783.34
2024-02-02T01:14:33.408Z,98786.69
2024-02-02T01:17:01.175Z,98789.81
2024-02-02T01:19:29.041Z,98785.63
2024-02-02T01:21:56.830Z,98781.09
2024-02-02T01:24:24.697Z,98790.53
2024-02-02T01:26:52.475Z,98792.09
2024-02-02T01:29:21.577Z,98798.47
2024-02-02T01:31:49.293Z,98795.72
2024-02-02T01:34:17.260Z,98797.25
2024-02-02T01:36:45.141Z,98804.34
2024-02-02T01:39:14.330Z,98796.56
2024-02-02T01:41:42.232Z,98803.47
2024-02-02T01:44:10.659Z,98799.94
2024-02-02T01:46:39.679Z,98798.88
2024-02-02T01:49:07.610Z,98802.00
2024-02-02T01:51:35.564Z,98801.06
2024-02-02T01:54:03.657Z,98810.78
2024-02-02T01:56:31.444Z,98804.94
2024-02-02T01:58:59.205Z,98802.97
2024-02-02T02:01:27.141Z,98798.25
2024-02-02T02:03:56.423Z,98791.75
2024-02-02T02:06:24.294Z,98796.13
2024-02-02T02:08:52.109Z,98795.13
2024-02-02T02:11:20.011Z,98787.75
2024-02-02T02:13:47.875Z,98780.47
2024-02-02T02:16:15.690Z,98775.69
2024-02-02T02:18:52.463Z,98777.97
2024-02-02T02:21:26.025Z,98781.03
2024-02-02T02:23:53.864Z,98782.31
2024-02-02T02:26:21.968Z,98776.97
2024-02-02T02:28:50.568Z,98757.00
2024-02-02T02:31:19.094Z,98768.81
2024-02-02T02:33:47.421Z,98764.13
2024-02-02T02:36:15.998Z,98764.16
2024-02-02T02:38:46.183Z,98760.81
2024-02-02T02:41:13.915Z,98769.19
2024-02-02T02:43:41.877Z,98777.88
2024-02-02T02:46:09.878Z,98781.41
2024-02-02T02:48:38.706Z,98768.03
2024-02-02T02:51:06.922Z,98773.22
2024-02-02T02:53:34.723Z,98780.25
2024-02-02T02:56:04.487Z,98775.38
2024-02-02T02:58:32.323Z,98755.06
2024-02-02T03:01:00.124Z,98749.75
2024-02-02T03:03:28.033Z,98742.28
2024-02-02T03:05:55.933Z,98760.00
2024-02-02T03:08:23.713Z,98755.13
2024-02-02T03:10:51.467Z,98755.91
2024-02-02T03:13:20.794Z,98757.88
2024-02-02T03:15:48.559Z,98745.34
2024-02-02T03:18:16.605Z,98743.78
2024-02-02T03:20:44.417Z,98743.13
2024-02-02T03:23:12.073Z,98744.00
2024-02-02T03:25:39.831Z,98749.06
2024-02-02T03:28:07.682Z,98741.00
2024-02-02T03:30:36.965Z,98744.84
2024-02-02T03:33:05.185Z,98739.50
2024-02-02T03:35:32.935Z,98741.50
2024-02-02T03:38:00.719Z,98742.84
2024-02-02T03:40:28.489Z,98742.97
2024-02-02T03:42:56.359Z,98735.72
2024-02-02T03:45:24.154Z,98741.56
2024-02-02T03:47:53.299Z,98740.56
2024-02-02T03:50:21.060Z,98740.66
2024-02-02T03:52:51.507Z,98733.78
2024-02-02T03:55:19.346Z,98730.16
2024-02-02T03:57:47.077Z,98726.63
2024-02-02T04:00:16.532Z,98744.59
2024-02-02T04:02:44.803Z,98738.47
2024-02-02T04:05:13.910Z,98746.31
2024-02-02T04:07:41.942Z,98752.34
2024-02-02T04:10:10.615Z,98740.63
2024-02-02T04:12:39.053Z,98761.66
2024-02-02T04:15:08.270Z,98761.75
2024-02-02T04:17:36.095Z,98769.75
2024-02-02T04:20:04.153Z,98771.22
2024-02-02T04:22:33.507Z,98765.66
2024-02-02T04:25:01.207Z,98772.41
2024-02-02T04:27:29.064Z,98758.50
2024-02-02T04:29:56.912Z,98760.06
2024-02-02T04:32:24.650Z,98771.88
2024-02-02T04:34:52.540Z,98775.22
2024-02-02T04:37:20.331Z,98775.56
2024-02-02T04:39:49.450Z,98787.16
2024-02-02T04:42:17.176Z,98788.88
2024-02-02T04:44:44.892Z,98793.81
2024-02-02T04:47:12.698Z,98790.25
2024-02-02T04:49:40.561Z,98794.78
2024-02-02T04:52:08.390Z,98796.97
2024-02-02T04:54:36.160Z,98791.22
2024-02-02T04:57:05.801Z,98781.69
2024-02-02T04:59:33.604Z,98784.31
2024-02-02T05:02:04.882Z,98776.00
2024-02-02T05:04:34.280Z,98774.22
2024-02-02T05:07:02.100Z,98775.63
2024-02-02T05:09:30.078Z,98780.63
2024-02-02T05:11:57.922Z,98784.50
2024-02-02T05:14:27.236Z,98777.75
2024-02-02T05:16:54.910Z,98791.50
2024-02-02T05:19:22.605Z,98777.88
2024-02-02T05:21:50.326Z,98778.00
2024-02-02T05:24:31.624Z,98766.28
2024-02-02T05:27:06.162Z,98762.22
2024-02-02T05:29:35.248Z,98764.75
2024-02-02T05:32:03.005Z,98759.09
2024-02-02T05:34:30.912Z,98762.84
2024-02-02T05:36:58.665Z,98764.72
2024-02-02T05:39:26.405Z,98757.63
2024-02-02T05:41:56.359Z,98769.41
2024-02-02T05:44:24.216Z,98766.75
2024-02-02T05:46:53.342Z,98770.09
2024-02-02T05:49:21.166Z,98775.75
2024-02-02T05:51:49.877Z,98769.44
2024-02-02T05:54:17.608Z,98772.59
2024-02-02T05:56:45.301Z,98772.31
2024-02-02T05:59:13.067Z,98772.75
2024-02-02T06:01:40.131Z,98776.19
2024-02-02T06:04:10.042Z,98777.69
2024-02-02T06:06:37.869Z,98782.69
2024-02-02T06:09:06.485Z,98774.88
2024-02-02T06:11:34.621Z,98765.50
2024-02-02T06:14:02.536Z,98766.28
2024-02-02T06:16:30.370Z,98774.94
2024-02-02T06:18:58.363Z,98768.00
2024-02-02T06:21:27.619Z,98764.00
2024-02-02T06:23:55.406Z,98768.91
2024-02-02T06:26:24.379Z,98761.06
2024-02-02T06:28:52.097Z,98759.75
2024-02-02T06:31:22.636Z,98763.38
2024-02-02T06:33:50.383Z,98757.66
2024-02-02T06:36:18.223Z,98756.38
2024-02-02T06:38:47.358Z,98758.06
2024-02-02T06:41:15.032Z,98759.69
2024-02-02T06:43:42.820Z,98749.97
2024-02-02T06:46:10.527Z,98756.69
2024-02-02T06:48:38.258Z,98751.25
2024-02-02T06:51:06.654Z,98752.31
2024-02-02T06:53:35.025Z,98751.16
2024-02-02T06:56:05.761Z,98771.00
2024-02-02T06:58:41.148Z,98758.81
2024-02-02T07:01:09.755Z,98756.47
2024-02-02T07:03:38.188Z,98749.88
2024-02-02T07:06:07.120Z,98737.75
2024-02-02T07:08:35.114Z,98740.47
2024-02-02T07:11:47.230Z,98740.72
2024-02-02T07:14:34.999Z,98754.16
2024-02-02T07:17:02.864Z,98759.06
2024-02-02T07:19:39.589Z,98755.59
2024-02-02T07:22:21.885Z,98766.88
2024-02-02T07:24:49.598Z,98761.31
2024-02-02T07:27:49.994Z,98748.63
2024-02-02T07:30:41.387Z,98767.09
2024-02-02T07:33:20.650Z,98767.22
2024-02-02T07:35:48.517Z,98752.97
2024-02-02T07:38:41.063Z,98748.59
2024-02-02T07:41:09.557Z,98750.38
2024-02-02T07:43:38.606Z,98755.53
2024-02-02T07:46:10.628Z,98751.97
2024-02-02T07:48:41.247Z,98760.94
2024-02-02T07:51:09.390Z,98749.75
2024-02-02T07:53:37.500Z,98759.34
2024-02-02T07:56:05.616Z,98757.34
2024-02-02T07:58:33.411Z,98764.41
2024-02-02T08:01:02.700Z,98769.03
2024-02-02T08:03:30.788Z,98771.84
2024-02-02T08:05:58.703Z,98768.38
2024-02-02T08:08:26.536Z,98772.41
2024-02-02T08:10:54.885Z,98767.00
2024-02-02T08:13:23.519Z,98758.03
2024-02-02T08:15:51.291Z,98756.84
2024-02-02T08:18:20.474Z,98758.88
2024-02-02T08:20:48.522Z,98753.63
2024-02-02T08:23:16.274Z,98759.19
2024-02-02T08:25:43.993Z,98753.25
2024-02-02T08:28:11.699Z,98753.63
2024-02-02T08:30:39.468Z,98752.31
2024-02-02T08:33:07.650Z,98744.28
2024-02-02T08:35:36.768Z,98740.75
2024-02-02T08:38:05.372Z,98741.78
2024-02-02T08:40:39.638Z,98737.41
2024-02-02T08:43:11.066Z,98740.38
2024-02-02T08:46:04.538Z,98734.34
2024-02-02T08:48:37.228Z,98725.13
2024-02-02T08:51:50.574Z,98704.41
2024-02-02T08:54:46.932Z,98733.78
2024-02-02T08:57:37.041Z,98723.44
2024-02-02T09:00:19.324Z,98706.22
2024-02-02T09:02:56.768Z,98703.84
2024-02-02T09:05:26.866Z,98689.97
2024-02-02T09:08:10.675Z,98686.84
2024-02-02T09:11:22.715Z,98692.84
2024-02-02T09:13:53.416Z,98682.84
2024-02-02T09:16:21.151Z,98691.09
2024-02-02T09:18:57.464Z,98679.19
2024-02-02T09:21:29.041Z,98681.09
2024-02-02T09:23:58.323Z,98680.59
2024-02-02T09:26:33.060Z,98686.44
2024-02-02T09:29:02.206Z,98690.25
2024-02-02T09:31:33.460Z,98685.78
2024-02-02T09:34:06.420Z,98683.88
2024-02-02T09:36:35.056Z,98681.94
2024-02-02T09:39:07.368Z,98684.69
2024-02-02T09:42:02.353Z,98677.59
2024-02-02T09:44:47.275Z,98686.19
2024-02-02T09:47:32.679Z,98673.88
2024-02-02T09:50:10.620Z,98682.16
2024-02-02T09:52:51.708Z,98679.91
2024-02-02T09:55:25.122Z,98683.25
2024-02-02T09:57:57.332Z,98672.72
2024-02-02T10:00:34.501Z,98687.50
2024-02-02T10:03:10.527Z,98676.97
2024-02-02T10:05:48.545Z,98688.72
2024-02-02T10:08:26.399Z,98692.38
2024-02-02T10:11:07.506Z,98687.25
2024-02-02T10:13:44.450Z,98679.66
2024-02-02T10:16:24.205Z,98679.97
2024-02-02T10:19:04.770Z,98683.59
2024-02-02T10:21:39.308Z,98684.16
2024-02-02T10:24:34.403Z,98691.75
2024-02-02T10:27:15.034Z,98690.25
2024-02-02T10:29:50.089Z,98684.16
2024-02-02T10:32:40.195Z,98676.63
2024-02-02T10:35:17.857Z,98672.34
2024-02-02T10:37:51.228Z,98685.41
2024-02-02T10:40:34.692Z,98694.94
2024-02-02T10:43:17.871Z,98678.34
2024-02-02T10:45:54.826Z,98667.78
2024-02-02T10:48:33.885Z,98662.34
2024-02-02T10:51:08.243Z,98662.69
2024-02-02T10:53:46.856Z,98673.50
2024-02-02T10:56:24.222Z,98680.53
2024-02-02T10:59:06.174Z,98670.94
2024-02-02T11:01:42.949Z,98667.63
2024-02-02T11:04:15.985Z,98667.50
2024-02-02T11:06:48.419Z,98666.19
2024-02-02T11:09:21.032Z,98661.72
2024-02-02T11:11:55.212Z,98663.94
2024-02-02T11:14:31.417Z,98659.78
2024-02-02T11:17:02.655Z,98659.09
2024-02-02T11:19:45.935Z,98659.53
2024-02-02T11:22:21.085Z,98649.94
2024-02-02T11:24:59.582Z,98647.59
2024-02-02T11:27:34.440Z,98643.81
2024-02-02T11:30:07.247Z,98650.25
2024-02-02T11:32:47.943Z,98643.47
2024-02-02T11:35:22.399Z,98627.75
2024-02-02T11:37:58.728Z,98624.03
2024-02-02T11:40:27.884Z,98619.41
2024-02-02T11:42:57.387Z,98620.44
2024-02-02T11:45:28.738Z,98615.91
2024-02-02T11:48:01.755Z,98619.41
2024-02-02T11:50:33.181Z,98615.31
2024-02-02T11:53:09.750Z,98619.41
2024-02-02T11:55:41.771Z,98611.34
2024-02-02T11:58:10.721Z,98621.50
2024-02-02T12:00:50.947Z,98605.88
2024-02-02T12:03:28.911Z,98611.44
2024-02-02T12:06:05.074Z,98616.75
2024-02-02T12:08:34.063Z,98605.88
2024-02-02T12:11:03.752Z,98605.09
2024-02-02T12:13:32.622Z,98601.00
2024-02-02T12:16:02.324Z,98603.66
2024-02-02T12:18:30.169Z,98587.47
2024-02-02T12:20:57.972Z,98591.38
2024-02-02T12:23:25.724Z,98583.75
2024-02-02T12:25:53.659Z,98586.38
2024-02-02T12:28:21.364Z,98570.72
2024-02-02T12:30:49.225Z,98587.44
2024-02-02T12:33:22.380Z,98570.19
2024-02-02T12:35:50.489Z,98560.88
2024-02-02T12:38:22.785Z,98573.97
2024-02-02T12:40:50.598Z,98554.84
2024-02-02T12:43:24.783Z,98556.78
2024-02-02T12:45:52.989Z,98556.06
2024-02-02T12:48:22.404Z,98557.38
2024-02-02T12:50:51.968Z,98550.81
2024-02-02T12:53:21.109Z,98544.69
2024-02-02T12:55:50.087Z,98551.28
2024-02-02T12:58:18.067Z,98537.56
2024-02-02T13:00:45.913Z,98536.91
2024-02-02T13:03:14.203Z,98530.16
2024-02-02T13:05:43.811Z,98530.19
2024-02-02T13:08:12.017Z,98519.63
2024-02-02T13:10:40.218Z,98517.81
2024-02-02T13:13:14.155Z,98522.09
2024-02-02T13:15:43.029Z,98517.13
2024-02-02T13:18:14.568Z,98518.56
2024-02-02T13:20:45.941Z,98516.28
2024-02-02T13:23:21.366Z,98511.00
2024-02-02T13:25:55.171Z,98508.78
2024-02-02T13:28:22.775Z,98512.59
2024-02-02T13:30:53.933Z,98503.56
2024-02-02T13:33:21.801Z,98501.94
2024-02-02T13:35:51.986Z,98496.56
2024-02-02T13:38:21.780Z,98500.56
2024-02-02T13:40:49.516Z,98507.69
2024-02-02T13:43:17.138Z,98512.06
2024-02-02T13:45:45.677Z,98511.22
2024-02-02T13:48:15.698Z,98505.53
2024-02-02T13:50:51.826Z,98492.47
2024-02-02T13:53:24.104Z,98489.16
2024-02-02T13:55:51.951Z,98487.94
2024-02-02T13:58:19.545Z,98481.88
2024-02-02T14:00:47.311Z,98473.50
2024-02-02T14:03:16.705Z,98488.34
2024-02-02T14:05:44.222Z,98475.84
2024-02-02T14:08:12.275Z,98483.25
2024-02-02T14:10:45.387Z,98482.00
2024-02-02T14:13:13.797Z,98488.25
2024-02-02T14:15:41.402Z,98485.38
2024-02-02T14:18:09.441Z,98485.38
2024-02-02T14:20:37.852Z,98481.06
2024-02-02T14:23:11.319Z,98485.28
2024-02-02T14:25:39.124Z,98474.19
2024-02-02T14:28:18.961Z,98468.22
2024-02-02T14:30:47.112Z,98492.09
2024-02-02T14:33:24.743Z,98473.84
2024-02-02T14:35:54.044Z,98469.97
2024-02-02T14:38:21.614Z,98475.06
2024-02-02T14:40:49.823Z,98477.13
2024-02-02T14:43:18.773Z,98476.56
2024-02-02T14:45:46.332Z,98479.25
2024-02-02T14:48:14.442Z,98466.88
2024-02-02T14:50:42.065Z,98466.22
2024-02-02T14:53:09.527Z,98471.25
2024-02-02T14:55:37.354Z,98475.88
2024-02-02T14:58:05.703Z,98467.41
2024-02-02T15:00:41.956Z,98464.72
2024-02-02T15:03:09.565Z,98464.50
2024-02-02T15:05:37.223Z,98455.88
2024-02-02T15:08:04.962Z,98462.69
2024-02-02T15:10:32.444Z,98466.06
2024-02-02T15:13:00.009Z,98458.41
2024-02-02T15:15:27.546Z,98464.59
2024-02-02T15:17:56.389Z,98462.53
2024-02-02T15:20:24.104Z,98450.63
2024-02-02T15:22:54.958Z,98451.25
2024-02-02T15:25:22.574Z,98449.56
2024-02-02T15:27:50.135Z,98455.19
2024-02-02T15:30:18.199Z,98450.59
2024-02-02T15:32:46.677Z,98448.19
2024-02-02T15:35:15.842Z,98448.25
2024-02-02T15:37:43.449Z,98442.38
2024-02-02T15:40:11.148Z,98427.88
2024-02-02T15:42:38.735Z,98430.63
2024-02-02T15:45:06.801Z,98429.25
2024-02-02T15:47:35.389Z,98430.13
2024-02-02T15:50:03.917Z,98431.16
2024-02-02T15:52:33.768Z,98426.50
2024-02-02T15:55:04.296Z,98427.97
2024-02-02T15:57:32.234Z,98419.41
2024-02-02T15:59:59.840Z,98418.78
2024-02-02T16:02:27.345Z,98420.31
2024-02-02T16:04:57.166Z,98426.41
2024-02-02T16:07:25.020Z,98433.44
2024-02-02T16:09:57.159Z,98430.34
2024-02-02T16:12:24.758Z,98441.06
2024-02-02T16:14:52.506Z,98432.84
2024-02-02T16:17:20.008Z,98435.63
2024-02-02T16:19:47.752Z,98431.56
2024-02-02T16:22:15.786Z,98423.88
2024-02-02T16:24:43.323Z,98423.81
2024-02-02T16:27:12.617Z,98426.75
2024-02-02T16:29:40.110Z,98422.34
2024-02-02T16:32:09.228Z,98432.59
2024-02-02T16:34:36.852Z,98433.94
2024-02-02T16:37:04.494Z,98425.38
2024-02-02T16:39:34.069Z,98422.00
2024-02-02T16:42:01.861Z,98420.78
2024-02-02T16:44:30.763Z,98416.03
2024-02-02T16:47:00.574Z,98407.28
2024-02-02T16:49:28.191Z,98404.44
2024-02-02T16:51:55.738Z,98405.06
2024-02-02T16:54:23.441Z,98409.50
2024-02-02T16:56:51.151Z,98414.03
2024-02-02T16:59:18.911Z,98409.72
2024-02-02T17:01:48.012Z,98402.66
2024-02-02T17:04:15.953Z,98403.75
2024-02-02T17:06:44.203Z,98401.75
2024-02-02T17:09:12.196Z,98405.66
2024-02-02T17:11:39.979Z,98418.16
2024-02-02T17:14:07.649Z,98401.97
2024-02-02T17:16:35.399Z,98403.75
2024-02-02T17:19:05.430Z,98403.09
2024-02-02T17:21:33.511Z,98421.28
2024-02-02T17:24:01.262Z,98429.19
2024-02-02T17:26:29.337Z,98432.41
2024-02-02T17:29:00.567Z,98438.81
2024-02-02T17:31:35.142Z,98441.66
2024-02-02T17:34:03.008Z,98435.25
2024-02-02T17:36:32.124Z,98436.13
2024-02-02T17:38:59.851Z,98435.75
2024-02-02T17:41:27.516Z,98439.81
2024-02-02T17:44:01.516Z,98449.44
2024-02-02T17:46:29.162Z,98441.19
2024-02-02T17:48:56.891Z,98443.78
2024-02-02T17:51:25.135Z,98433.91
2024-02-02T17:53:55.566Z,98427.41
2024-02-02T17:56:23.307Z,98433.41
2024-02-02T17:58:55.764Z,98425.59
2024-02-02T18:01:23.968Z,98425.81
2024-02-02T18:03:52.656Z,98428.94
2024-02-02T18:06:21.005Z,98413.72
2024-02-02T18:08:48.732Z,98425.06
2024-02-02T18:11:17.768Z,98417.63
2024-02-02T18:13:45.438Z,98422.72
2024-02-02T18:16:14.269Z,98431.66
2024-02-02T18:18:42.450Z,98440.25
2024-02-02T18:21:10.473Z,98441.28
2024-02-02T18:23:38.553Z,98442.47
2024-02-02T18:26:06.792Z,98437.53
2024-02-02T18:28:35.922Z,98441.78
2024-02-02T18:31:04.297Z,98433.75
2024-02-02T18:33:32.201Z,98442.63
2024-02-02T18:36:00.028Z,98437.59
2024-02-02T18:38:27.725Z,98441.56
2024-02-02T18:40:55.461Z,98453.47
2024-02-02T18:43:23.182Z,98438.94
2024-02-02T18:45:52.260Z,98435.91
2024-02-02T18:48:24.660Z,98445.22
2024-02-02T18:50:52.520Z,98449.03
2024-02-02T18:53:20.162Z,98437.13
2024-02-02T18:55:50.245Z,98431.19
2024-02-02T18:58:19.430Z,98440.59
2024-02-02T19:00:48.242Z,98432.66
2024-02-02T19:03:17.355Z,98421.63
2024-02-02T19:05:47.984Z,98418.22
2024-02-02T19:08:15.756Z,98424.84
2024-02-02T19:10:45.615Z,98429.41
2024-02-02T19:13:13.807Z,98430.66
2024-02-02T19:15:41.538Z,98434.84
2024-02-02T19:18:09.519Z,98430.53
2024-02-02T19:20:41.054Z,98437.88
2024-02-02T19:23:08.784Z,98439.44
2024-02-02T19:25:36.477Z,98433.66
2024-02-02T19:28:04.245Z,98432.59
2024-02-02T19:30:31.956Z,98431.06
2024-02-02T19:32:59.806Z,98424.44
2024-02-02T19:35:28.910Z,98423.28
2024-02-02T19:37:58.072Z,98421.19
2024-02-02T19:40:25.774Z,98424.53
2024-02-02T19:42:53.744Z,98426.19
2024-02-02T19:45:21.448Z,98437.38
2024-02-02T19:47:49.209Z,98435.19
2024-02-02T19:50:16.956Z,98430.00
2024-02-02T19:52:44.615Z,98430.31
2024-02-02T19:55:14.455Z,98435.19
2024-02-02T19:57:42.153Z,98438.50
2024-02-02T20:00:14.742Z,98442.59
2024-02-02T20:02:42.804Z,98447.03
2024-02-02T20:05:10.919Z,98446.34
2024-02-02T20:07:38.603Z,98446.00
2024-02-02T20:10:07.924Z,98446.00
2024-02-02T20:12:37.149Z,98451.25
2024-02-02T20:15:05.393Z,98454.16
2024-02-02T20:17:33.153Z,98443.59
2024-02-02T20:20:00.970Z,98442.00
2024-02-02T20:22:28.753Z,98450.09
2024-02-02T20:24:56.505Z,98442.97
2024-02-02T20:27:24.285Z,98448.63
2024-02-02T20:29:53.619Z,98446.13
2024-02-02T20:32:21.311Z,98447.56
2024-02-02T20:34:49.156Z,98448.34
2024-02-02T20:37:16.907Z,98454.84
2024-02-02T20:39:44.660Z,98453.69
2024-02-02T20:42:13.314Z,98462.88
2024-02-02T20:44:42.798Z,98455.94
2024-02-02T20:47:11.910Z,98460.16
2024-02-02T20:49:40.800Z,98458.00
2024-02-02T20:52:11.531Z,98462.16
2024-02-02T20:54:39.254Z,98450.94
2024-02-02T20:57:06.985Z,98462.16
2024-02-02T20:59:34.710Z,98456.31
2024-02-02T21:02:02.444Z,98465.94
2024-02-02T21:04:31.701Z,98465.84
2024-02-02T21:06:59.684Z,98461.88
2024-02-02T21:09:28.306Z,98468.72
2024-02-02T21:11:56.095Z,98460.81
2024-02-02T21:14:24.049Z,98463.47
2024-02-02T21:16:51.775Z,98460.91
2024-02-02T21:19:19.626Z,98460.72
2024-02-02T21:21:49.483Z,98466.81
2024-02-02T21:24:17.277Z,98464.06
2024-02-02T21:26:45.042Z,98463.97
2024-02-02T21:29:13.242Z,98465.09
2024-02-02T21:31:40.991Z,98472.06
2024-02-02T21:34:09.082Z,98468.97
2024-02-02T21:36:37.634Z,98476.69
2024-02-02T21:39:07.762Z,98473.34
2024-02-02T21:41:36.103Z,98472.19
2024-02-02T21:44:04.628Z,98472.53
2024-02-02T21:46:32.637Z,98470.03
2024-02-02T21:49:00.555Z,98477.25
2024-02-02T21:51:28.418Z,98485.78
2024-02-02T21:53:56.164Z,98485.78
2024-02-02T21:56:25.233Z,98484.97
2024-02-02T21:58:52.929Z,98486.03
2024-02-02T22:01:21.482Z,98472.00
2024-02-02T22:03:49.361Z,98474.09
2024-02-02T22:06:17.275Z,98482.63
2024-02-02T22:08:45.059Z,98484.50
2024-02-02T22:11:14.343Z,98475.97
2024-02-02T22:13:43.669Z,98487.94
2024-02-02T22:16:12.018Z,98488.06
2024-02-02T22:18:39.828Z,98497.69
2024-02-02T22:21:07.616Z,98495.25
2024-02-02T22:23:36.118Z,98499.59
2024-02-02T22:26:03.974Z,98506.19
2024-02-02T22:28:31.770Z,98503.28
2024-02-02T22:31:05.769Z,98511.72
2024-02-02T22:33:34.148Z,98512.69
2024-02-02T22:36:02.028Z,98519.72
2024-02-02T22:38:29.688Z,98523.91
2024-02-02T22:40:57.355Z,98517.19
2024-02-02T22:43:25.017Z,98510.97
2024-02-02T22:45:52.907Z,98514.25
2024-02-02T22:48:22.012Z,98521.09
2024-02-02T22:50:49.712Z,98526.13
2024-02-02T22:53:17.406Z,98516.88
2024-02-02T22:55:45.149Z,98526.13
2024-02-02T22:58:12.914Z,98521.34
2024-02-02T23:00:42.169Z,98530.38
2024-02-02T23:03:11.499Z,98518.94
2024-02-02T23:05:41.966Z,98524.09
2024-02-02T23:08:09.649Z,98521.31
2024-02-02T23:10:37.385Z,98519.28
2024-02-02T23:13:06.549Z,98513.44
2024-02-02T23:15:34.371Z,98520.25
2024-02-02T23:18:02.170Z,98522.25
2024-02-02T23:20:29.884Z,98528.84
2024-02-02T23:22:58.947Z,98536.34
2024-02-02T23:25:27.293Z,98529.34
2024-02-02T23:27:55.074Z,98520.03
2024-02-02T23:30:22.816Z,98515.88
2024-02-02T23:32:50.505Z,98514.91
2024-02-02T23:35:18.403Z,98508.78
2024-02-02T23:37:46.134Z,98511.41
2024-02-02T23:40:15.556Z,98524.25
2024-02-02T23:42:43.260Z,98527.25
2024-02-02T23:45:12.184Z,98522.25
2024-02-02T23:47:39.979Z,98515.00
2024-02-02T23:50:08.363Z,98524.63
2024-02-02T23:52:36.071Z,98515.47
2024-02-02T23:55:03.738Z,98511.13
2024-02-02T23:57:32.930Z,98513.94
